Huvudsida
METAR-TAF:

METAR-TAF

Flygplatser :

Ängelholm-Helsingborg Airport

Helsingborg, Sverige

latitud: 56-17-46N, longitud: 012-50-50E, höjd: 21 m

Aktuellt väderrapport

Denna rapport gjordes för 15 minuter sedan, klockan 00:50 UTC
Vind 2 kt från ost
Temperatur 1°C
Fuktighet 86%
Tryck 1028 hPa
Sikt 10 km eller mer

METAR: ESTA 210050Z AUTO 08002KT 9999 NCD 01/M01 Q1028

Tid: 03:05 (01:05 UTC)

Väderprognos

Denna rapport gjordes för 13 timmar och 53 minuter sedan, klockan 11:12 UTC
Prognos gäller från 20 kl. 12 UTC till 20 kl. 15 UTC
Vind 10 kt från väst
Sikt 10 km eller mer
Inga moln under 1 500 m eller inga cumulonimbus

TAF: ESTA 201112Z 2012/2015 28010KT CAVOK

Aktuella väderrapporter och prognoser från 4000 flygplatser (METAR- och TAF-rapporter).

De tillgängliga stationerna syns som gula och röda prickar på kartan.

För musen över prickarna för att se namnen på stationerna.

Klicka sedan för att få väderrapporter och prognoser.

För att ändra kartan: Klicka på de gröna knapparna med ett svart kors på för att zooma in; den gröna knappen med ett streck på för att zooma ut; eller på de gröna pilarna för angränsande kartor.


METAR-TAF: